Terminal Aerodrome Forecast
Issued by NWS

Home | Current Version | Previous Version | Text Only | Print | Product List | Glossary On
Versions: 1 2 3 4 5 6 7 8 9 10 11 12 13 14 15 16 17 18 19 20 21 22 23 24 25
365
FTUS43 KLSX 202339
TAFCPS
TAF
KCPS 202339Z 2100/2124 31012G19KT 3SM RA OVC007
     FM210600 34011G19KT 2SM RA BR OVC008
     FM211000 34010G17KT 6SM -FZRA OVC015
     FM211300 35010G17KT P6SM VCSH OVC015
     FM211600 01010KT P6SM VCSH OVC030
     FM211800 01010KT P6SM BKN080=

USA.gov is the U.S. government's official web portal to all federal, state and local government web resources and services.